sensor_id;sensor_type;location;lat;lon;timestamp;pressure;altitude;pressure_sealevel;temperature;humidity
58239;BME280;44037;55.638;37.356;2022-12-05T00:00:49;101967.25;;;-11.01;72.57
58239;BME280;44037;55.638;37.356;2022-12-05T00:03:16;101967.25;;;-11.01;72.49
58239;BME280;44037;55.638;37.356;2022-12-05T00:05:45;101965.84;;;-10.99;72.52
58239;BME280;44037;55.638;37.356;2022-12-05T00:08:12;101959.44;;;-10.97;72.95
58239;BME280;44037;55.638;37.356;2022-12-05T00:10:39;101964.81;;;-10.93;73.00
58239;BME280;44037;55.638;37.356;2022-12-05T00:13:07;101967.34;;;-10.93;72.87
58239;BME280;44037;55.638;37.356;2022-12-05T00:15:35;101967.34;;;-10.93;72.56
58239;BME280;44037;55.638;37.356;2022-12-05T00:18:03;101966.63;;;-10.92;73.24
58239;BME280;44037;55.638;37.356;2022-12-05T00:20:30;101970.94;;;-10.91;72.68
58239;BME280;44037;55.638;37.356;2022-12-05T00:22:59;101963.44;;;-10.91;73.07
58239;BME280;44037;55.638;37.356;2022-12-05T00:25:26;101956.63;;;-10.92;72.22
58239;BME280;44037;55.638;37.356;2022-12-05T00:27:53;101958.44;;;-10.91;72.49
58239;BME280;44037;55.638;37.356;2022-12-05T00:30:20;101963.44;;;-10.91;72.82
58239;BME280;44037;55.638;37.356;2022-12-05T00:32:47;101959.81;;;-10.93;72.72
58239;BME280;44037;55.638;37.356;2022-12-05T00:35:14;101959.44;;;-10.97;72.96
58239;BME280;44037;55.638;37.356;2022-12-05T00:37:41;101959.91;;;-10.99;72.67
58239;BME280;44037;55.638;37.356;2022-12-05T00:40:11;101959.03;;;-11.00;72.61
58239;BME280;44037;55.638;37.356;2022-12-05T00:42:38;101952.72;;;-11.03;72.12
58239;BME280;44037;55.638;37.356;2022-12-05T00:45:06;101948.88;;;-11.07;72.81
58239;BME280;44037;55.638;37.356;2022-12-05T00:47:34;101945.50;;;-11.07;71.85
58239;BME280;44037;55.638;37.356;2022-12-05T00:50:01;101941.00;;;-11.10;72.43
58239;BME280;44037;55.638;37.356;2022-12-05T00:52:28;101946.00;;;-11.10;72.40
58239;BME280;44037;55.638;37.356;2022-12-05T00:54:55;101948.28;;;-11.12;72.48
58239;BME280;44037;55.638;37.356;2022-12-05T00:57:23;101942.84;;;-11.15;72.83
58239;BME280;44037;55.638;37.356;2022-12-05T00:59:50;101941.97;;;-11.15;72.21
58239;BME280;44037;55.638;37.356;2022-12-05T01:02:17;101945.38;;;-11.15;72.78
58239;BME280;44037;55.638;37.356;2022-12-05T01:04:44;101946.09;;;-11.16;72.18
58239;BME280;44037;55.638;37.356;2022-12-05T01:07:11;101939.47;;;-11.15;72.44
58239;BME280;44037;55.638;37.356;2022-12-05T01:09:38;101935.16;;;-11.16;71.85
58239;BME280;44037;55.638;37.356;2022-12-05T01:12:06;101925.16;;;-11.16;72.13
58239;BME280;44037;55.638;37.356;2022-12-05T01:14:34;101926.06;;;-11.16;72.37
58239;BME280;44037;55.638;37.356;2022-12-05T01:17:01;101918.75;;;-11.14;72.19
58239;BME280;44037;55.638;37.356;2022-12-05T01:19:30;101916.25;;;-11.14;72.87
58239;BME280;44037;55.638;37.356;2022-12-05T01:21:58;101911.94;;;-11.15;71.88
58239;BME280;44037;55.638;37.356;2022-12-05T01:24:26;101910.63;;;-11.19;72.02
58239;BME280;44037;55.638;37.356;2022-12-05T01:26:54;101907.91;;;-11.20;71.71
58239;BME280;44037;55.638;37.356;2022-12-05T01:29:22;101899.31;;;-11.22;71.78
58239;BME280;44037;55.638;37.356;2022-12-05T01:31:52;101900.28;;;-11.28;72.25
58239;BME280;44037;55.638;37.356;2022-12-05T01:34:20;101898.78;;;-11.33;71.96
58239;BME280;44037;55.638;37.356;2022-12-05T01:36:48;101893.56;;;-11.34;71.81
58239;BME280;44037;55.638;37.356;2022-12-05T01:39:15;101894.28;;;-11.35;72.17
58239;BME280;44037;55.638;37.356;2022-12-05T01:41:45;101900.47;;;-11.39;71.96
58239;BME280;44037;55.638;37.356;2022-12-05T01:47:21;101886.66;;;-11.43;72.04
58239;BME280;44037;55.638;37.356;2022-12-05T01:49:50;101876.44;;;-11.44;71.93
58239;BME280;44037;55.638;37.356;2022-12-05T01:52:21;101884.88;;;-11.44;71.81
58239;BME280;44037;55.638;37.356;2022-12-05T01:54:50;101877.53;;;-11.42;72.68
58239;BME280;44037;55.638;37.356;2022-12-05T01:57:18;101882.56;;;-11.42;72.05
58239;BME280;44037;55.638;37.356;2022-12-05T01:59:54;101883.06;;;-11.45;72.49
58239;BME280;44037;55.638;37.356;2022-12-05T02:02:25;101880.31;;;-11.46;72.03
58239;BME280;44037;55.638;37.356;2022-12-05T02:04:58;101881.25;;;-11.46;72.27
58239;BME280;44037;55.638;37.356;2022-12-05T02:07:26;101881.44;;;-11.44;71.82
58239;BME280;44037;55.638;37.356;2022-12-05T02:09:53;101884.34;;;-11.41;71.79
58239;BME280;44037;55.638;37.356;2022-12-05T02:12:21;101882.25;;;-11.38;72.34
58239;BME280;44037;55.638;37.356;2022-12-05T02:15:06;101882.25;;;-11.38;72.27
58239;BME280;44037;55.638;37.356;2022-12-05T02:17:45;101878.16;;;-11.37;72.05
58239;BME280;44037;55.638;37.356;2022-12-05T02:20:31;101878.38;;;-11.36;72.57
58239;BME280;44037;55.638;37.356;2022-12-05T02:26:26;101863.34;;;-11.36;72.64
58239;BME280;44037;55.638;37.356;2022-12-05T02:32:11;101872.44;;;-11.36;72.73
58239;BME280;44037;55.638;37.356;2022-12-05T02:34:43;101862.25;;;-11.38;72.41
58239;BME280;44037;55.638;37.356;2022-12-05T02:37:13;101865.44;;;-11.39;71.73
58239;BME280;44037;55.638;37.356;2022-12-05T02:39:45;101861.13;;;-11.40;71.88
58239;BME280;44037;55.638;37.356;2022-12-05T02:42:20;101859.84;;;-11.44;72.04
58239;BME280;44037;55.638;37.356;2022-12-05T02:44:53;101857.09;;;-11.45;72.29
58239;BME280;44037;55.638;37.356;2022-12-05T02:47:26;101853.72;;;-11.46;72.38
58239;BME280;44037;55.638;37.356;2022-12-05T02:49:56;101856.22;;;-11.46;71.65
58239;BME280;44037;55.638;37.356;2022-12-05T02:52:24;101853.03;;;-11.45;72.39
58239;BME280;44037;55.638;37.356;2022-12-05T02:54:53;101849.13;;;-11.43;72.01
58239;BME280;44037;55.638;37.356;2022-12-05T02:57:21;101845.00;;;-11.42;72.50
58239;BME280;44037;55.638;37.356;2022-12-05T02:59:49;101850.00;;;-11.42;72.02
58239;BME280;44037;55.638;37.356;2022-12-05T03:02:26;101843.44;;;-11.42;72.12
58239;BME280;44037;55.638;37.356;2022-12-05T03:04:54;101840.94;;;-11.42;71.97
58239;BME280;44037;55.638;37.356;2022-12-05T03:07:24;101839.31;;;-11.41;72.04
58239;BME280;44037;55.638;37.356;2022-12-05T03:09:55;101835.91;;;-11.42;71.84
58239;BME280;44037;55.638;37.356;2022-12-05T03:12:26;101839.13;;;-11.43;72.05
58239;BME280;44037;55.638;37.356;2022-12-05T03:14:57;101833.19;;;-11.43;72.12
58239;BME280;44037;55.638;37.356;2022-12-05T03:17:32;101837.09;;;-11.45;71.34
58239;BME280;44037;55.638;37.356;2022-12-05T03:20:07;101842.78;;;-11.46;71.93
58239;BME280;44037;55.638;37.356;2022-12-05T03:22:39;101831.00;;;-11.47;71.67
58239;BME280;44037;55.638;37.356;2022-12-05T03:25:08;101827.00;;;-11.52;71.75
58239;BME280;44037;55.638;37.356;2022-12-05T03:27:43;101822.50;;;-11.55;71.22
58239;BME280;44037;55.638;37.356;2022-12-05T03:30:14;101822.78;;;-11.59;70.84
58239;BME280;44037;55.638;37.356;2022-12-05T03:32:48;101820.78;;;-11.62;71.34
58239;BME280;44037;55.638;37.356;2022-12-05T03:35:21;101820.38;;;-11.65;71.45
58239;BME280;44037;55.638;37.356;2022-12-05T03:37:52;101820.38;;;-11.65;71.55
58239;BME280;44037;55.638;37.356;2022-12-05T03:40:28;101821.06;;;-11.66;71.90
58239;BME280;44037;55.638;37.356;2022-12-05T03:43:00;101824.25;;;-11.67;71.71
58239;BME280;44037;55.638;37.356;2022-12-05T03:45:34;101818.66;;;-11.71;72.14
58239;BME280;44037;55.638;37.356;2022-12-05T03:48:11;101806.66;;;-11.74;71.92
58239;BME280;44037;55.638;37.356;2022-12-05T03:50:43;101808.75;;;-11.77;71.97
58239;BME280;44037;55.638;37.356;2022-12-05T03:53:15;101805.13;;;-11.79;71.92
58239;BME280;44037;55.638;37.356;2022-12-05T03:55:45;101810.81;;;-11.80;71.66
58239;BME280;44037;55.638;37.356;2022-12-05T03:58:18;101805.63;;;-11.82;71.83
58239;BME280;44037;55.638;37.356;2022-12-05T04:00:50;101812.22;;;-11.82;71.67
58239;BME280;44037;55.638;37.356;2022-12-05T04:03:24;101801.84;;;-11.85;71.30
58239;BME280;44037;55.638;37.356;2022-12-05T04:06:05;101796.59;;;-11.87;71.48
58239;BME280;44037;55.638;37.356;2022-12-05T04:08:38;101791.59;;;-11.87;71.27
58239;BME280;44037;55.638;37.356;2022-12-05T04:11:11;101797.13;;;-11.90;71.72
58239;BME280;44037;55.638;37.356;2022-12-05T04:13:41;101792.13;;;-11.90;71.32
58239;BME280;44037;55.638;37.356;2022-12-05T04:16:13;101793.00;;;-11.89;71.53
58239;BME280;44037;55.638;37.356;2022-12-05T04:19:04;101790.31;;;-11.91;72.03
58239;BME280;44037;55.638;37.356;2022-12-05T04:21:38;101778.50;;;-11.92;71.73
58239;BME280;44037;55.638;37.356;2022-12-05T04:24:09;101783.50;;;-11.92;71.58
58239;BME280;44037;55.638;37.356;2022-12-05T04:27:05;101788.78;;;-11.96;71.37
58239;BME280;44037;55.638;37.356;2022-12-05T04:29:38;101784.13;;;-12.00;71.06
58239;BME280;44037;55.638;37.356;2022-12-05T04:32:10;101781.41;;;-12.01;71.58
58239;BME280;44037;55.638;37.356;2022-12-05T04:34:41;101781.22;;;-12.03;71.18
58239;BME280;44037;55.638;37.356;2022-12-05T04:37:12;101777.59;;;-12.05;71.16
58239;BME280;44037;55.638;37.356;2022-12-05T04:39:47;101771.81;;;-12.11;71.33
58239;BME280;44037;55.638;37.356;2022-12-05T04:42:18;101770.00;;;-12.12;71.84
58239;BME280;44037;55.638;37.356;2022-12-05T04:44:49;101775.00;;;-12.12;71.83
58239;BME280;44037;55.638;37.356;2022-12-05T04:47:20;101768.69;;;-12.16;71.76
58239;BME280;44037;55.638;37.356;2022-12-05T04:49:50;101778.47;;;-12.17;71.26
58239;BME280;44037;55.638;37.356;2022-12-05T04:52:19;101774.66;;;-12.21;71.47
58239;BME280;44037;55.638;37.356;2022-12-05T04:54:49;101767.16;;;-12.21;71.55
58239;BME280;44037;55.638;37.356;2022-12-05T04:57:21;101761.97;;;-12.23;71.77
58239;BME280;44037;55.638;37.356;2022-12-05T04:59:50;101756.97;;;-12.23;71.72
58239;BME280;44037;55.638;37.356;2022-12-05T05:02:20;101750.38;;;-12.22;72.00
58239;BME280;44037;55.638;37.356;2022-12-05T05:04:52;101756.06;;;-12.23;71.72
58239;BME280;44037;55.638;37.356;2022-12-05T05:07:20;101755.66;;;-12.26;72.01
58239;BME280;44037;55.638;37.356;2022-12-05T05:09:48;101760.44;;;-12.28;71.93
58239;BME280;44037;55.638;37.356;2022-12-05T05:12:15;101763.63;;;-12.29;72.31
58239;BME280;44037;55.638;37.356;2022-12-05T05:14:42;101762.75;;;-12.29;71.90
58239;BME280;44037;55.638;37.356;2022-12-05T05:17:09;101761.34;;;-12.27;71.89
58239;BME280;44037;55.638;37.356;2022-12-05T05:19:36;101765.44;;;-12.28;72.12
58239;BME280;44037;55.638;37.356;2022-12-05T05:22:04;101761.34;;;-12.27;72.16
58239;BME280;44037;55.638;37.356;2022-12-05T05:24:31;101762.44;;;-12.25;72.00
58239;BME280;44037;55.638;37.356;2022-12-05T05:26:58;101761.06;;;-12.23;71.91
58239;BME280;44037;55.638;37.356;2022-12-05T05:29:25;101767.16;;;-12.21;72.08
58239;BME280;44037;55.638;37.356;2022-12-05T05:31:53;101765.78;;;-12.19;72.37
58239;BME280;44037;55.638;37.356;2022-12-05T05:34:20;101766.59;;;-12.13;72.34
58239;BME280;44037;55.638;37.356;2022-12-05T05:36:50;101763.28;;;-12.06;71.76
58239;BME280;44037;55.638;37.356;2022-12-05T05:39:19;101754.59;;;-12.02;71.69
58239;BME280;44037;55.638;37.356;2022-12-05T05:41:47;101756.63;;;-12.00;72.09
58239;BME280;44037;55.638;37.356;2022-12-05T05:44:14;101764.13;;;-12.00;71.45
58239;BME280;44037;55.638;37.356;2022-12-05T05:46:41;101753.78;;;-11.96;71.97
58239;BME280;44037;55.638;37.356;2022-12-05T05:49:09;101754.78;;;-11.88;71.73
58239;BME280;44037;55.638;37.356;2022-12-05T05:51:36;101749.22;;;-11.80;72.00
58239;BME280;44037;55.638;37.356;2022-12-05T05:54:03;101750.94;;;-11.73;72.00
58239;BME280;44037;55.638;37.356;2022-12-05T05:56:31;101756.91;;;-11.65;71.60
58239;BME280;44037;55.638;37.356;2022-12-05T05:59:00;101748.59;;;-11.59;71.60
58239;BME280;44037;55.638;37.356;2022-12-05T06:01:28;101746.03;;;-11.53;71.60
58239;BME280;44037;55.638;37.356;2022-12-05T06:03:55;101750.00;;;-11.48;71.57
58239;BME280;44037;55.638;37.356;2022-12-05T06:06:23;101748.09;;;-11.43;71.29
58239;BME280;44037;55.638;37.356;2022-12-05T06:08:50;101743.00;;;-11.37;71.28
58239;BME280;44037;55.638;37.356;2022-12-05T06:11:20;101746.31;;;-11.31;70.42
58239;BME280;44037;55.638;37.356;2022-12-05T06:13:49;101750.50;;;-11.24;70.71
58239;BME280;44037;55.638;37.356;2022-12-05T06:16:17;101754.19;;;-11.15;71.15
58239;BME280;44037;55.638;37.356;2022-12-05T06:18:45;101737.47;;;-11.09;70.46
58239;BME280;44037;55.638;37.356;2022-12-05T06:21:12;101743.94;;;-11.04;70.30
58239;BME280;44037;55.638;37.356;2022-12-05T06:23:39;101741.53;;;-10.97;70.35
58239;BME280;44037;55.638;37.356;2022-12-05T06:26:10;101736.31;;;-10.85;70.38
58239;BME280;44037;55.638;37.356;2022-12-05T06:28:38;101728.84;;;-10.78;70.10
58239;BME280;44037;55.638;37.356;2022-12-05T06:31:11;101733.03;;;-10.71;69.63
58239;BME280;44037;55.638;37.356;2022-12-05T06:33:39;101727.59;;;-10.61;69.38
58239;BME280;44037;55.638;37.356;2022-12-05T06:36:09;101725.84;;;-10.55;68.64
58239;BME280;44037;55.638;37.356;2022-12-05T06:38:36;101733.94;;;-10.51;68.00
58239;BME280;44037;55.638;37.356;2022-12-05T06:41:04;101735.25;;;-10.47;68.13
58239;BME280;44037;55.638;37.356;2022-12-05T06:43:31;101731.69;;;-10.42;68.61
58239;BME280;44037;55.638;37.356;2022-12-05T06:45:59;101724.72;;;-10.37;67.82
58239;BME280;44037;55.638;37.356;2022-12-05T06:48:27;101725.28;;;-10.32;67.98
58239;BME280;44037;55.638;37.356;2022-12-05T06:50:55;101721.75;;;-10.27;67.80
58239;BME280;44037;55.638;37.356;2022-12-05T06:53:22;101710.00;;;-10.21;67.63
58239;BME280;44037;55.638;37.356;2022-12-05T06:55:55;101725.63;;;-10.16;67.81
58239;BME280;44037;55.638;37.356;2022-12-05T06:58:23;101717.03;;;-10.11;66.88
58239;BME280;44037;55.638;37.356;2022-12-05T07:00:50;101709.38;;;-10.06;67.28
58239;BME280;44037;55.638;37.356;2022-12-05T07:03:36;101715.34;;;-9.98;66.71
58239;BME280;44037;55.638;37.356;2022-12-05T07:06:04;101712.69;;;-9.92;65.94
58239;BME280;44037;55.638;37.356;2022-12-05T07:08:32;101715.28;;;-9.85;65.99
58239;BME280;44037;55.638;37.356;2022-12-05T07:10:59;101721.75;;;-9.80;66.35
58239;BME280;44037;55.638;37.356;2022-12-05T07:13:27;101721.59;;;-9.74;65.99
58239;BME280;44037;55.638;37.356;2022-12-05T07:15:54;101716.25;;;-9.70;66.41
58239;BME280;44037;55.638;37.356;2022-12-05T07:18:23;101718.94;;;-9.68;65.78
58239;BME280;44037;55.638;37.356;2022-12-05T07:20:56;101716.28;;;-9.63;65.79
58239;BME280;44037;55.638;37.356;2022-12-05T07:23:24;101712.19;;;-9.62;64.59
58239;BME280;44037;55.638;37.356;2022-12-05T07:25:51;101707.53;;;-9.59;63.92
58239;BME280;44037;55.638;37.356;2022-12-05T07:28:18;101713.63;;;-9.57;64.92
58239;BME280;44037;55.638;37.356;2022-12-05T07:30:45;101710.06;;;-9.52;63.65
58239;BME280;44037;55.638;37.356;2022-12-05T07:33:12;101709.75;;;-9.48;64.11
58239;BME280;44037;55.638;37.356;2022-12-05T07:35:39;101699.56;;;-9.42;64.06
58239;BME280;44037;55.638;37.356;2022-12-05T07:38:08;101699.41;;;-9.36;64.04
58239;BME280;44037;55.638;37.356;2022-12-05T07:40:36;101691.00;;;-9.30;63.51
58239;BME280;44037;55.638;37.356;2022-12-05T07:43:03;101693.72;;;-9.21;62.67
58239;BME280;44037;55.638;37.356;2022-12-05T07:45:33;101698.44;;;-9.09;62.76
58239;BME280;44037;55.638;37.356;2022-12-05T07:48:01;101698.81;;;-8.99;62.69
58239;BME280;44037;55.638;37.356;2022-12-05T07:50:28;101686.78;;;-8.87;62.36
58239;BME280;44037;55.638;37.356;2022-12-05T07:52:55;101688.09;;;-8.76;62.55
58239;BME280;44037;55.638;37.356;2022-12-05T07:55:23;101680.91;;;-8.66;61.91
58239;BME280;44037;55.638;37.356;2022-12-05T07:57:50;101682.19;;;-8.55;62.07
58239;BME280;44037;55.638;37.356;2022-12-05T08:00:18;101682.00;;;-8.50;60.71
58239;BME280;44037;55.638;37.356;2022-12-05T08:02:45;101683.81;;;-8.49;61.25
58239;BME280;44037;55.638;37.356;2022-12-05T08:05:13;101682.34;;;-8.46;61.09
58239;BME280;44037;55.638;37.356;2022-12-05T08:07:40;101682.88;;;-8.42;60.90
58239;BME280;44037;55.638;37.356;2022-12-05T08:10:08;101679.28;;;-8.37;60.79
58239;BME280;44037;55.638;37.356;2022-12-05T08:12:36;101678.75;;;-8.34;61.07
58239;BME280;44037;55.638;37.356;2022-12-05T08:15:05;101661.84;;;-8.28;60.49
58239;BME280;44037;55.638;37.356;2022-12-05T08:17:32;101672.81;;;-8.20;60.63
58239;BME280;44037;55.638;37.356;2022-12-05T08:19:59;101665.44;;;-8.19;60.24
58239;BME280;44037;55.638;37.356;2022-12-05T08:22:27;101670.09;;;-8.14;60.07
58239;BME280;44037;55.638;37.356;2022-12-05T08:24:54;101654.66;;;-8.10;59.99
58239;BME280;44037;55.638;37.356;2022-12-05T08:27:21;101650.50;;;-8.10;59.56
58239;BME280;44037;55.638;37.356;2022-12-05T08:29:49;101654.66;;;-8.10;59.64
58239;BME280;44037;55.638;37.356;2022-12-05T08:32:16;101651.75;;;-8.06;59.50
58239;BME280;44037;55.638;37.356;2022-12-05T08:34:44;101650.69;;;-8.01;59.24
58239;BME280;44037;55.638;37.356;2022-12-05T08:37:11;101640.63;;;-7.94;59.52
58239;BME280;44037;55.638;37.356;2022-12-05T08:39:38;101640.75;;;-7.85;59.55
58239;BME280;44037;55.638;37.356;2022-12-05T08:42:05;101631.00;;;-7.75;59.07
58239;BME280;44037;55.638;37.356;2022-12-05T08:44:32;101618.91;;;-7.63;58.89
58239;BME280;44037;55.638;37.356;2022-12-05T08:47:00;101618.00;;;-7.56;57.75
58239;BME280;44037;55.638;37.356;2022-12-05T08:49:27;101632.53;;;-7.53;57.97
58239;BME280;44037;55.638;37.356;2022-12-05T08:51:54;101626.06;;;-7.51;58.02
58239;BME280;44037;55.638;37.356;2022-12-05T08:54:21;101630.16;;;-7.45;58.05
58239;BME280;44037;55.638;37.356;2022-12-05T08:56:49;101626.56;;;-7.39;58.21
58239;BME280;44037;55.638;37.356;2022-12-05T08:59:17;101628.47;;;-7.30;58.04
58239;BME280;44037;55.638;37.356;2022-12-05T09:01:44;101614.94;;;-7.23;58.09
58239;BME280;44037;55.638;37.356;2022-12-05T09:04:13;101613.13;;;-7.17;57.82
58239;BME280;44037;55.638;37.356;2022-12-05T09:06:40;101614.34;;;-7.13;57.93
58239;BME280;44037;55.638;37.356;2022-12-05T09:09:09;101615.78;;;-7.08;58.00
58239;BME280;44037;55.638;37.356;2022-12-05T09:11:38;101611.81;;;-7.06;58.13
58239;BME280;44037;55.638;37.356;2022-12-05T09:14:08;101612.84;;;-7.04;58.05
58239;BME280;44037;55.638;37.356;2022-12-05T09:16:36;101601.16;;;-7.03;58.02
58239;BME280;44037;55.638;37.356;2022-12-05T09:19:03;101595.38;;;-7.02;57.87
58239;BME280;44037;55.638;37.356;2022-12-05T09:21:32;101593.94;;;-7.00;57.63
58239;BME280;44037;55.638;37.356;2022-12-05T09:24:00;101590.13;;;-6.97;57.60
58239;BME280;44037;55.638;37.356;2022-12-05T09:26:28;101580.03;;;-6.97;57.41
58239;BME280;44037;55.638;37.356;2022-12-05T09:28:56;101587.19;;;-6.92;57.47
58239;BME280;44037;55.638;37.356;2022-12-05T09:31:25;101583.94;;;-6.91;57.43
58239;BME280;44037;55.638;37.356;2022-12-05T09:33:53;101572.75;;;-6.86;57.23
58239;BME280;44037;55.638;37.356;2022-12-05T09:36:21;101573.09;;;-6.83;57.18
58239;BME280;44037;55.638;37.356;2022-12-05T09:38:51;101568.22;;;-6.82;57.03
58239;BME280;44037;55.638;37.356;2022-12-05T09:41:40;101554.72;;;-6.82;57.03
58239;BME280;44037;55.638;37.356;2022-12-05T09:44:35;101563.31;;;-6.80;56.81
58239;BME280;44037;55.638;37.356;2022-12-05T09:47:13;101559.03;;;-6.81;56.68
58239;BME280;44037;55.638;37.356;2022-12-05T09:49:47;101553.09;;;-6.82;56.88
58239;BME280;44037;55.638;37.356;2022-12-05T09:52:23;101550.00;;;-6.79;57.17
58239;BME280;44037;55.638;37.356;2022-12-05T09:54:53;101550.09;;;-6.70;56.71
58239;BME280;44037;55.638;37.356;2022-12-05T09:57:28;101550.06;;;-6.63;56.79
58239;BME280;44037;55.638;37.356;2022-12-05T09:59:59;101543.72;;;-6.59;56.79
58239;BME280;44037;55.638;37.356;2022-12-05T10:02:38;101544.69;;;-6.50;56.71
58239;BME280;44037;55.638;37.356;2022-12-05T10:05:13;101540.81;;;-6.39;56.80
58239;BME280;44037;55.638;37.356;2022-12-05T10:07:51;101533.75;;;-6.35;56.58
58239;BME280;44037;55.638;37.356;2022-12-05T10:10:26;101528.31;;;-6.30;56.45
58239;BME280;44037;55.638;37.356;2022-12-05T10:13:17;101524.47;;;-6.27;56.41
58239;BME280;44037;55.638;37.356;2022-12-05T10:15:49;101535.44;;;-6.26;55.66
58239;BME280;44037;55.638;37.356;2022-12-05T10:18:26;101529.34;;;-6.28;56.04
58239;BME280;44037;55.638;37.356;2022-12-05T10:20:58;101530.06;;;-6.29;55.81
58239;BME280;44037;55.638;37.356;2022-12-05T10:23:30;101530.81;;;-6.30;55.77
58239;BME280;44037;55.638;37.356;2022-12-05T10:26:04;101524.28;;;-6.28;55.50
58239;BME280;44037;55.638;37.356;2022-12-05T10:28:35;101522.81;;;-6.26;55.03
58239;BME280;44037;55.638;37.356;2022-12-05T10:31:08;101519.41;;;-6.27;54.81
58239;BME280;44037;55.638;37.356;2022-12-05T10:33:38;101523.25;;;-6.30;54.78
58239;BME280;44037;55.638;37.356;2022-12-05T10:36:11;101511.03;;;-6.35;54.69
58239;BME280;44037;55.638;37.356;2022-12-05T10:38:38;101522.44;;;-6.38;54.31
58239;BME280;44037;55.638;37.356;2022-12-05T10:41:09;101512.59;;;-6.44;54.47
58239;BME280;44037;55.638;37.356;2022-12-05T10:43:40;101521.28;;;-6.49;54.74
58239;BME280;44037;55.638;37.356;2022-12-05T10:46:09;101512.28;;;-6.54;54.69
58239;BME280;44037;55.638;37.356;2022-12-05T10:48:38;101515.25;;;-6.58;54.94
58239;BME280;44037;55.638;37.356;2022-12-05T10:51:06;101509.88;;;-6.61;55.30
58239;BME280;44037;55.638;37.356;2022-12-05T10:53:38;101513.50;;;-6.67;54.38
58239;BME280;44037;55.638;37.356;2022-12-05T10:56:39;101511.63;;;-6.76;54.71
58239;BME280;44037;55.638;37.356;2022-12-05T10:59:08;101513.47;;;-6.83;54.81
58239;BME280;44037;55.638;37.356;2022-12-05T11:01:36;101506.00;;;-6.90;55.06
58239;BME280;44037;55.638;37.356;2022-12-05T11:04:09;101508.75;;;-6.96;54.87
58239;BME280;44037;55.638;37.356;2022-12-05T11:06:36;101506.25;;;-7.03;55.17
58239;BME280;44037;55.638;37.356;2022-12-05T11:09:12;101506.69;;;-7.07;55.40
58239;BME280;44037;55.638;37.356;2022-12-05T11:11:56;101509.59;;;-7.11;55.56
58239;BME280;44037;55.638;37.356;2022-12-05T11:14:26;101504.53;;;-7.11;55.15
58239;BME280;44037;55.638;37.356;2022-12-05T11:16:56;101505.66;;;-7.16;55.39
58239;BME280;44037;55.638;37.356;2022-12-05T11:19:26;101506.06;;;-7.20;55.64
58239;BME280;44037;55.638;37.356;2022-12-05T11:21:54;101501.41;;;-7.25;55.99
58239;BME280;44037;55.638;37.356;2022-12-05T11:24:25;101486.13;;;-7.26;55.83
58239;BME280;44037;55.638;37.356;2022-12-05T11:26:55;101490.81;;;-7.29;55.89
58239;BME280;44037;55.638;37.356;2022-12-05T11:29:34;101496.09;;;-7.35;56.01
58239;BME280;44037;55.638;37.356;2022-12-05T11:32:03;101492.34;;;-7.38;55.98
58239;BME280;44037;55.638;37.356;2022-12-05T11:34:35;101478.91;;;-7.46;56.21
58239;BME280;44037;55.638;37.356;2022-12-05T11:37:09;101493.81;;;-7.48;56.35
58239;BME280;44037;55.638;37.356;2022-12-05T11:39:38;101488.47;;;-7.51;56.36
58239;BME280;44037;55.638;37.356;2022-12-05T11:42:24;101489.72;;;-7.54;56.44
58239;BME280;44037;55.638;37.356;2022-12-05T11:45:16;101482.91;;;-7.56;56.56
58239;BME280;44037;55.638;37.356;2022-12-05T11:47:58;101476.09;;;-7.57;56.48
58239;BME280;44037;55.638;37.356;2022-12-05T11:50:39;101479.00;;;-7.61;56.50
58239;BME280;44037;55.638;37.356;2022-12-05T11:53:35;101480.09;;;-7.66;56.69
58239;BME280;44037;55.638;37.356;2022-12-05T11:56:10;101473.25;;;-7.67;57.15
58239;BME280;44037;55.638;37.356;2022-12-05T11:58:54;101467.00;;;-7.71;57.26
58239;BME280;44037;55.638;37.356;2022-12-05T12:01:29;101455.31;;;-7.70;57.14
58239;BME280;44037;55.638;37.356;2022-12-05T12:04:18;101451.53;;;-7.74;57.30
58239;BME280;44037;55.638;37.356;2022-12-05T12:06:56;101450.88;;;-7.80;57.03
58239;BME280;44037;55.638;37.356;2022-12-05T12:09:38;101448.00;;;-7.83;57.37
58239;BME280;44037;55.638;37.356;2022-12-05T12:12:15;101444.25;;;-7.87;57.50
58239;BME280;44037;55.638;37.356;2022-12-05T12:14:55;101442.47;;;-7.88;57.52
58239;BME280;44037;55.638;37.356;2022-12-05T12:17:31;101440.31;;;-7.92;57.63
58239;BME280;44037;55.638;37.356;2022-12-05T12:20:18;101430.47;;;-7.97;57.55
58239;BME280;44037;55.638;37.356;2022-12-05T12:23:08;101435.91;;;-8.02;58.01
58239;BME280;44037;55.638;37.356;2022-12-05T12:25:44;101428.00;;;-8.05;57.82
58239;BME280;44037;55.638;37.356;2022-12-05T12:28:26;101425.88;;;-8.09;58.02
58239;BME280;44037;55.638;37.356;2022-12-05T12:31:04;101419.09;;;-8.17;58.31
58239;BME280;44037;55.638;37.356;2022-12-05T12:33:34;101412.63;;;-8.22;58.39
58239;BME280;44037;55.638;37.356;2022-12-05T12:36:12;101414.47;;;-8.28;58.64
58239;BME280;44037;55.638;37.356;2022-12-05T12:38:53;101420.44;;;-8.35;58.98
58239;BME280;44037;55.638;37.356;2022-12-05T12:41:44;101415.78;;;-8.39;59.05
58239;BME280;44037;55.638;37.356;2022-12-05T12:44:38;101414.53;;;-8.43;59.14
58239;BME280;44037;55.638;37.356;2022-12-05T12:47:17;101415.81;;;-8.46;59.14
58239;BME280;44037;55.638;37.356;2022-12-05T12:49:55;101419.44;;;-8.52;59.38
58239;BME280;44037;55.638;37.356;2022-12-05T12:52:38;101417.13;;;-8.57;59.87
58239;BME280;44037;55.638;37.356;2022-12-05T12:55:19;101417.69;;;-8.60;59.60
58239;BME280;44037;55.638;37.356;2022-12-05T12:57:56;101415.53;;;-8.64;59.79
58239;BME280;44037;55.638;37.356;2022-12-05T13:00:33;101410.72;;;-8.70;60.04
58239;BME280;44037;55.638;37.356;2022-12-05T13:03:09;101405.88;;;-8.75;60.26
58239;BME280;44037;55.638;37.356;2022-12-05T13:05:43;101412.34;;;-8.77;60.64